Time;durP1;ratioP1;P1;durP2;ratioP2;P2;SDS_P1;SDS_P2;PMS_P1;PMS_P2;Temp;Humidity;BMP_temperature;BMP_pressure;BME280_temperature;BME280_humidity;BME280_pressure;Samples;Min_cycle;Max_cycle;Signal;HPM_P1;HPM_P2
2023/07/18 16:01:39;;;;;;;;;;;;;;;45.16;10.77;99932.47;4155200;23;1971001;-69
2023/07/18 16:04:06;;;;;;;;;;;;;;;45.27;10.05;99928.56;6156567;23;20230;-68
2023/07/18 16:06:34;;;;;;;;;;;;;;;45.56;10.52;99925.75;6156716;23;20293;-68
2023/07/18 16:08:59;;;;;;;;;;;;;;;46.10;9.25;99925.06;6156254;23;19916;-69
2023/07/18 16:11:24;;;;;;;;;;;;;;;46.72;10.31;99918.25;6155941;23;20337;-67
2023/07/18 16:13:50;;;;;;;;;;;;;;;47.15;8.60;99910.34;6129693;23;19909;-68
2023/07/18 16:16:16;;;;;;;;;;;;;;;46.29;10.50;99914.72;6129656;23;19908;-68
2023/07/18 16:18:55;;;;;;;;;;;;;;;46.18;10.05;99919.94;6155588;23;19915;-68
2023/07/18 16:21:21;;;;;;;;;;;;;;;43.52;11.15;99912.25;6155494;23;20034;-68
2023/07/18 16:23:47;;;;;;;;;;;;;;;41.57;12.27;99911.41;6155631;23;20002;-68
2023/07/18 16:26:13;;;;;;;;;;;;;;;40.04;13.47;99908.50;6129855;23;20237;-68
2023/07/18 16:28:38;;;;;;;;;;;;;;;40.13;14.21;99908.06;6155806;23;19916;-68
2023/07/18 16:31:04;;;;;;;;;;;;;;;40.40;13.57;99917.59;6155900;23;19915;-68
2023/07/18 16:33:31;;;;;;;;;;;;;;;41.70;13.09;99911.72;6129568;23;20296;-68
2023/07/18 16:35:56;;;;;;;;;;;;;;;42.20;12.86;99910.31;6155695;23;19991;-69
2023/07/18 16:38:21;;;;;;;;;;;;;;;42.65;12.60;99910.06;6155843;23;19944;-68
2023/07/18 16:40:47;;;;;;;;;;;;;;;40.42;12.80;99901.09;6156186;23;19944;-68
2023/07/18 16:43:12;;;;;;;;;;;;;;;38.81;13.55;99904.25;6155852;23;19909;-68
2023/07/18 16:45:38;;;;;;;;;;;;;;;37.37;14.82;99903.63;6155988;23;19912;-68
2023/07/18 16:48:05;;;;;;;;;;;;;;;36.75;15.40;99907.94;6155141;23;19909;-68
2023/07/18 16:50:30;;;;;;;;;;;;;;;36.02;15.15;99910.28;6155930;23;19908;-67
2023/07/18 16:52:56;;;;;;;;;;;;;;;35.27;16.77;99898.84;6155984;23;19912;-68
2023/07/18 16:55:21;;;;;;;;;;;;;;;34.97;16.63;99901.53;6155677;23;19999;-68
2023/07/18 16:57:47;;;;;;;;;;;;;;;34.45;16.23;99912.13;6155654;23;19909;-67
2023/07/18 17:00:12;;;;;;;;;;;;;;;34.21;17.63;99904.88;6156068;23;19908;-67
2023/07/18 17:02:38;;;;;;;;;;;;;;;33.94;18.35;99894.38;6155459;23;20483;-67
2023/07/18 17:05:03;;;;;;;;;;;;;;;34.75;17.22;99890.00;6155917;23;19915;-67
2023/07/18 17:07:28;;;;;;;;;;;;;;;34.82;17.29;99894.91;6155470;23;20019;-68
2023/07/18 17:09:53;;;;;;;;;;;;;;;35.69;15.28;99883.91;6155706;23;19908;-68
2023/07/18 17:12:19;;;;;;;;;;;;;;;35.72;16.38;99888.75;6155367;23;19913;-68
2023/07/18 17:14:49;;;;;;;;;;;;;;;35.86;16.06;99885.31;6155733;23;20053;-68
2023/07/18 17:17:14;;;;;;;;;;;;;;;35.95;16.92;99882.25;6155508;23;19922;-67
2023/07/18 17:19:40;;;;;;;;;;;;;;;35.75;17.14;99889.97;6155692;23;19926;-67
2023/07/18 17:22:08;;;;;;;;;;;;;;;35.53;17.24;99892.47;6155759;23;19908;-68
2023/07/18 17:24:34;;;;;;;;;;;;;;;35.27;16.96;99880.13;6129575;23;19916;-68
2023/07/18 17:26:59;;;;;;;;;;;;;;;35.02;16.07;99878.88;6155551;23;20242;-68
2023/07/18 17:29:25;;;;;;;;;;;;;;;35.32;16.36;99869.81;6129803;23;20306;-68
2023/07/18 17:31:50;;;;;;;;;;;;;;;35.93;16.13;99879.03;6155322;23;19913;-68
2023/07/18 17:34:16;;;;;;;;;;;;;;;36.58;16.45;99875.75;6156116;23;19931;-68
2023/07/18 17:36:41;;;;;;;;;;;;;;;37.03;16.30;99860.97;6104936;23;20341;-68
2023/07/18 17:39:07;;;;;;;;;;;;;;;37.45;15.51;99865.28;6156057;23;19913;-69
2023/07/18 17:41:32;;;;;;;;;;;;;;;37.83;16.16;99865.91;6156065;23;19908;-68
2023/07/18 17:43:57;;;;;;;;;;;;;;;38.18;14.63;99862.44;6156091;23;19913;-68
2023/07/18 17:46:23;;;;;;;;;;;;;;;38.32;12.84;99859.66;6155667;23;19915;-68
2023/07/18 17:48:48;;;;;;;;;;;;;;;38.28;14.26;99858.88;6099555;23;20314;-69
2023/07/18 17:51:14;;;;;;;;;;;;;;;38.34;14.33;99865.69;6147528;23;19908;-70
2023/07/18 17:53:39;;;;;;;;;;;;;;;38.20;13.62;99862.03;6152535;23;20528;-70
2023/07/18 17:56:05;;;;;;;;;;;;;;;37.48;13.97;99859.72;6124069;23;19912;-70
2023/07/18 17:58:30;;;;;;;;;;;;;;;36.02;14.46;99860.78;6155061;23;20435;-70
2023/07/18 18:00:56;;;;;;;;;;;;;;;34.90;15.58;99869.53;6153266;23;20354;-70
2023/07/18 18:03:21;;;;;;;;;;;;;;;34.25;15.71;99853.63;6127828;23;20306;-69
2023/07/18 18:05:47;;;;;;;;;;;;;;;33.50;17.15;99861.16;6154807;23;19968;-69
2023/07/18 18:08:14;;;;;;;;;;;;;;;33.36;18.03;99853.31;6152871;23;20325;-70
2023/07/18 18:10:42;;;;;;;;;;;;;;;33.13;17.43;99847.59;6153914;23;20226;-69
2023/07/18 18:13:08;;;;;;;;;;;;;;;33.09;17.83;99851.44;6153417;23;20314;-68
2023/07/18 18:15:33;;;;;;;;;;;;;;;32.83;17.92;99844.47;6154120;23;19916;-67
2023/07/18 18:17:59;;;;;;;;;;;;;;;32.52;18.38;99848.00;6153998;23;19919;-68
2023/07/18 18:20:24;;;;;;;;;;;;;;;32.27;18.24;99855.69;6126879;23;19909;-67
2023/07/18 18:22:50;;;;;;;;;;;;;;;32.07;19.19;99854.75;6154259;23;19960;-67
2023/07/18 18:25:15;;;;;;;;;;;;;;;31.79;18.43;99850.75;6154767;23;19936;-68
2023/07/18 18:27:41;;;;;;;;;;;;;;;31.50;19.63;99851.91;6152765;23;19928;-70
2023/07/18 18:30:07;;;;;;;;;;;;;;;31.53;20.07;99850.38;6154580;23;19918;-70
2023/07/18 18:32:32;;;;;;;;;;;;;;;31.11;19.98;99845.06;6152329;23;19912;-70
2023/07/18 18:34:57;;;;;;;;;;;;;;;30.96;20.28;99854.91;6154852;23;19920;-70
2023/07/18 18:37:23;;;;;;;;;;;;;;;30.80;20.33;99846.44;6127470;23;19909;-70
2023/07/18 18:39:48;;;;;;;;;;;;;;;30.83;20.63;99846.56;6152984;23;20523;-71
2023/07/18 18:42:13;;;;;;;;;;;;;;;30.61;20.67;99841.44;6152788;23;19940;-69
2023/07/18 18:44:38;;;;;;;;;;;;;;;30.54;21.05;99847.56;6154971;23;19909;-70
2023/07/18 18:47:05;;;;;;;;;;;;;;;30.13;20.09;99846.50;6154930;23;19909;-69
2023/07/18 18:49:31;;;;;;;;;;;;;;;30.13;20.75;99848.44;6156172;23;19983;-69
2023/07/18 18:51:56;;;;;;;;;;;;;;;30.02;20.52;99840.56;6154665;23;19959;-70
2023/07/18 18:54:22;;;;;;;;;;;;;;;29.88;21.71;99842.81;6129920;23;19916;-70
2023/07/18 18:56:47;;;;;;;;;;;;;;;29.81;21.16;99837.00;6154071;23;19909;-70
2023/07/18 18:59:12;;;;;;;;;;;;;;;29.74;21.71;99840.31;6156486;23;20342;-70
2023/07/18 19:01:38;;;;;;;;;;;;;;;29.66;21.37;99855.00;6155518;23;19916;-69
2023/07/18 19:04:03;;;;;;;;;;;;;;;29.41;21.69;99849.31;6154523;23;19940;-68
2023/07/18 19:06:29;;;;;;;;;;;;;;;29.42;21.85;99845.41;6156247;23;19912;-69
2023/07/18 19:08:54;;;;;;;;;;;;;;;29.29;22.29;99844.53;6155371;23;19912;-69
2023/07/18 19:11:20;;;;;;;;;;;;;;;29.23;22.56;99839.50;6156524;23;19973;-71
2023/07/18 19:13:45;;;;;;;;;;;;;;;29.28;23.07;99842.09;6155913;23;19913;-72
2023/07/18 19:16:10;;;;;;;;;;;;;;;29.26;23.38;99842.41;6103257;23;20437;-72
2023/07/18 19:18:36;;;;;;;;;;;;;;;29.27;23.45;99844.06;6156209;23;20366;-72
2023/07/18 19:21:01;;;;;;;;;;;;;;;29.16;23.76;99845.59;6154434;23;19909;-70
2023/07/18 19:23:26;;;;;;;;;;;;;;;29.15;23.97;99841.19;6155448;23;20353;-71
2023/07/18 19:25:52;;;;;;;;;;;;;;;29.09;23.82;99848.03;6155828;23;19991;-71
2023/07/18 19:28:17;;;;;;;;;;;;;;;29.11;24.14;99843.78;6127716;23;19908;-71
2023/07/18 19:30:43;;;;;;;;;;;;;;;29.07;24.52;99839.25;6155800;23;19917;-71
2023/07/18 19:33:08;;;;;;;;;;;;;;;29.11;24.46;99849.31;6154559;23;19917;-71
2023/07/18 19:35:34;;;;;;;;;;;;;;;29.02;23.77;99851.31;6129888;23;19912;-71
2023/07/18 19:38:01;;;;;;;;;;;;;;;28.87;23.54;99852.69;6129870;23;20374;-70
2023/07/18 19:40:27;;;;;;;;;;;;;;;28.70;23.74;99847.22;6154585;23;19942;-71
2023/07/18 19:42:55;;;;;;;;;;;;;;;28.48;23.00;99851.00;6130907;23;19955;-71
2023/07/18 19:45:20;;;;;;;;;;;;;;;28.45;23.05;99848.88;6154704;23;19909;-70
2023/07/18 19:47:46;;;;;;;;;;;;;;;28.53;23.71;99843.38;6127172;23;20368;-70
2023/07/18 19:50:11;;;;;;;;;;;;;;;28.48;23.93;99851.00;6129520;23;19909;-72
2023/07/18 19:52:36;;;;;;;;;;;;;;;28.35;22.73;99853.63;6129828;23;19912;-72
2023/07/18 19:55:08;;;;;;;;;;;;;;;28.20;23.53;99848.63;6130746;23;19913;-71
2023/07/18 19:57:33;;;;;;;;;;;;;;;28.07;22.60;99853.19;6131598;23;19909;-71
2023/07/18 20:00:05;;;;;;;;;;;;;;;28.05;23.95;99860.19;6157405;23;19916;-71
2023/07/18 20:02:31;;;;;;;;;;;;;;;28.00;23.96;99859.19;6156902;23;19916;-71
2023/07/18 20:04:56;;;;;;;;;;;;;;;27.88;22.81;99858.19;6154721;23;20341;-69
2023/07/18 20:07:21;;;;;;;;;;;;;;;27.82;23.17;99857.53;6128873;23;19909;-69
2023/07/18 20:09:47;;;;;;;;;;;;;;;27.69;22.80;99867.63;6154729;23;20380;-70
2023/07/18 20:12:12;;;;;;;;;;;;;;;27.68;23.83;99868.72;6154978;23;19913;-71
2023/07/18 20:14:38;;;;;;;;;;;;;;;27.69;22.99;99870.38;6130073;23;19916;-71
2023/07/18 20:17:05;;;;;;;;;;;;;;;27.50;22.92;99872.59;6153780;23;19908;-71
2023/07/18 20:19:31;;;;;;;;;;;;;;;27.38;23.28;99868.53;6154585;23;19908;-71
2023/07/18 20:21:59;;;;;;;;;;;;;;;27.16;23.24;99868.59;6154189;23;19995;-71
2023/07/18 20:24:24;;;;;;;;;;;;;;;27.01;22.38;99878.94;6154862;23;19935;-71
2023/07/18 20:26:50;;;;;;;;;;;;;;;26.82;23.90;99864.59;6153926;23;20365;-71
2023/07/18 20:29:15;;;;;;;;;;;;;;;26.76;23.03;99874.91;6103640;23;19916;-71
2023/07/18 20:31:40;;;;;;;;;;;;;;;26.52;23.28;99872.47;6154343;23;19909;-71
2023/07/18 20:34:06;;;;;;;;;;;;;;;26.58;23.36;99882.25;6155612;23;19908;-70
2023/07/18 20:36:31;;;;;;;;;;;;;;;26.60;23.48;99877.28;6153076;23;19946;-71
2023/07/18 20:38:56;;;;;;;;;;;;;;;26.53;23.47;99873.31;6128547;23;19908;-70
2023/07/18 20:41:22;;;;;;;;;;;;;;;26.60;23.52;99874.53;6153900;23;19988;-72
2023/07/18 20:43:48;;;;;;;;;;;;;;;26.49;23.48;99875.88;6154803;23;19916;-71
2023/07/18 20:46:13;;;;;;;;;;;;;;;26.27;23.39;99876.72;6126922;23;20307;-70
2023/07/18 20:48:39;;;;;;;;;;;;;;;26.25;23.77;99882.53;6125458;23;20226;-70
2023/07/18 20:51:05;;;;;;;;;;;;;;;26.34;23.64;99876.28;6104216;23;19916;-70
2023/07/18 20:53:31;;;;;;;;;;;;;;;26.43;24.14;99879.91;6153543;23;19913;-70
2023/07/18 20:55:56;;;;;;;;;;;;;;;26.31;23.24;99880.47;6154756;23;19955;-71
2023/07/18 20:58:22;;;;;;;;;;;;;;;26.29;24.21;99870.91;6102914;23;19919;-71
2023/07/18 21:00:47;;;;;;;;;;;;;;;26.10;23.57;99882.09;6154132;23;19955;-71
2023/07/18 21:03:13;;;;;;;;;;;;;;;26.03;23.75;99885.28;6128744;23;19956;-71
2023/07/18 21:05:38;;;;;;;;;;;;;;;26.15;24.38;99879.22;6126678;23;19917;-72
2023/07/18 21:08:04;;;;;;;;;;;;;;;26.23;24.85;99886.72;6154304;23;19948;-71
2023/07/18 21:10:29;;;;;;;;;;;;;;;26.12;24.51;99890.84;6153734;23;20210;-72
2023/07/18 21:12:54;;;;;;;;;;;;;;;26.08;24.77;99894.22;6127235;23;19916;-72
2023/07/18 21:15:20;;;;;;;;;;;;;;;26.03;24.46;99899.03;6154768;23;19931;-72
2023/07/18 21:17:45;;;;;;;;;;;;;;;26.02;24.54;99902.91;6151830;23;19916;-72
2023/07/18 21:20:10;;;;;;;;;;;;;;;26.02;24.35;99911.16;6128001;23;19940;-71
2023/07/18 21:22:36;;;;;;;;;;;;;;;26.00;23.98;99911.50;6154814;23;20039;-71
2023/07/18 21:25:02;;;;;;;;;;;;;;;25.93;24.10;99907.50;6153772;23;19959;-70
2023/07/18 21:27:27;;;;;;;;;;;;;;;25.94;24.79;99907.22;6154340;23;19908;-69
2023/07/18 21:29:53;;;;;;;;;;;;;;;25.94;24.40;99900.91;6152858;23;19909;-69
2023/07/18 21:32:19;;;;;;;;;;;;;;;26.00;24.80;99917.00;6128167;23;19916;-68
2023/07/18 21:34:44;;;;;;;;;;;;;;;25.86;23.92;99910.69;6128739;23;19975;-69
2023/07/18 21:37:09;;;;;;;;;;;;;;;25.82;24.12;99912.44;6126294;23;19908;-70
2023/07/18 21:39:35;;;;;;;;;;;;;;;25.73;22.96;99909.59;6154774;23;19919;-70
2023/07/18 21:42:00;;;;;;;;;;;;;;;25.49;24.27;99915.31;6152262;23;20163;-70
2023/07/18 21:44:25;;;;;;;;;;;;;;;25.49;24.67;99916.13;6154597;23;19912;-71
2023/07/18 21:46:51;;;;;;;;;;;;;;;25.48;25.65;99911.78;6153243;23;19908;-69
2023/07/18 21:49:18;;;;;;;;;;;;;;;25.48;24.44;99914.53;6152621;23;19920;-71
2023/07/18 21:51:45;;;;;;;;;;;;;;;25.49;25.04;99912.56;6153751;23;19963;-71
2023/07/18 21:54:10;;;;;;;;;;;;;;;25.23;23.51;99921.34;6153531;23;19908;-71
2023/07/18 21:56:36;;;;;;;;;;;;;;;25.23;24.22;99921.34;6154515;23;19909;-71
2023/07/18 21:59:01;;;;;;;;;;;;;;;25.27;24.18;99927.84;6154916;23;20006;-71
2023/07/18 22:01:26;;;;;;;;;;;;;;;25.29;24.00;99924.81;6152384;23;20236;-71
2023/07/18 22:03:52;;;;;;;;;;;;;;;25.30;24.12;99926.44;6154321;23;19908;-71
2023/07/18 22:06:17;;;;;;;;;;;;;;;25.27;24.37;99921.53;6153073;23;19951;-71
2023/07/18 22:08:42;;;;;;;;;;;;;;;25.14;24.43;99919.59;6127532;23;20210;-71
2023/07/18 22:11:08;;;;;;;;;;;;;;;24.89;24.35;99881.31;6154389;23;19920;-71
2023/07/18 22:13:33;;;;;;;;;;;;;;;25.25;24.67;99929.28;6152421;23;19945;-71
2023/07/18 22:15:58;;;;;;;;;;;;;;;25.25;24.08;99929.28;6154167;23;19923;-71
2023/07/18 22:18:24;;;;;;;;;;;;;;;25.06;23.82;99927.41;6155646;23;20322;-72
2023/07/18 22:20:51;;;;;;;;;;;;;;;25.14;23.64;99927.81;6155289;23;19955;-68
2023/07/18 22:23:16;;;;;;;;;;;;;;;25.06;24.75;99924.66;6155889;23;19978;-68
2023/07/18 22:25:41;;;;;;;;;;;;;;;25.09;24.38;99924.06;6155002;23;19912;-67
2023/07/18 22:28:06;;;;;;;;;;;;;;;25.10;24.52;99931.16;6129490;23;19908;-68
2023/07/18 22:30:32;;;;;;;;;;;;;;;25.10;24.10;99931.16;6156380;23;19912;-67
2023/07/18 22:32:57;;;;;;;;;;;;;;;24.97;24.07;99929.22;6153766;23;19959;-66
2023/07/18 22:35:24;;;;;;;;;;;;;;;24.91;25.18;99928.50;6157560;23;19931;-67
2023/07/18 22:37:50;;;;;;;;;;;;;;;24.90;24.40;99926.06;6157100;23;19919;-69
2023/07/18 22:40:15;;;;;;;;;;;;;;;24.94;24.96;99927.06;6130810;23;20007;-69
2023/07/18 22:42:40;;;;;;;;;;;;;;;25.02;25.01;99925.59;6156452;23;19996;-69
2023/07/18 22:45:06;;;;;;;;;;;;;;;25.06;25.65;99927.41;6157043;23;19913;-69
2023/07/18 22:47:31;;;;;;;;;;;;;;;25.02;24.65;99931.09;6156054;23;19931;-69
2023/07/18 22:49:56;;;;;;;;;;;;;;;24.93;24.58;99922.72;6156770;23;19915;-69
2023/07/18 22:52:21;;;;;;;;;;;;;;;24.79;24.04;99919.94;6156663;23;19968;-70
2023/07/18 22:54:49;;;;;;;;;;;;;;;24.67;24.62;99923.16;6130943;23;19951;-70
2023/07/18 22:57:15;;;;;;;;;;;;;;;24.53;24.88;99920.41;6156672;23;19959;-70
2023/07/18 22:59:40;;;;;;;;;;;;;;;24.43;24.87;99919.72;6156483;23;19912;-70
2023/07/18 23:02:06;;;;;;;;;;;;;;;24.35;25.17;99918.47;6156165;23;19959;-70
2023/07/18 23:04:31;;;;;;;;;;;;;;;24.41;25.54;99919.19;6156493;23;19931;-70
2023/07/18 23:06:57;;;;;;;;;;;;;;;24.31;25.39;99922.91;6156341;23;19924;-70
2023/07/18 23:09:23;;;;;;;;;;;;;;;24.29;25.17;99925.13;6156702;23;19936;-70
2023/07/18 23:11:51;;;;;;;;;;;;;;;24.27;26.69;99917.19;6156679;23;20508;-70
2023/07/18 23:14:16;;;;;;;;;;;;;;;24.16;25.39;99926.69;6156799;23;19909;-70
2023/07/18 23:16:41;;;;;;;;;;;;;;;24.22;25.85;99933.75;6156617;23;19963;-70
2023/07/18 23:19:07;;;;;;;;;;;;;;;24.12;25.65;99934.72;6156607;23;19977;-70
2023/07/18 23:21:32;;;;;;;;;;;;;;;24.15;26.20;99936.88;6156411;23;19908;-70
2023/07/18 23:23:57;;;;;;;;;;;;;;;24.17;26.53;99922.84;6156363;23;19908;-70
2023/07/18 23:26:23;;;;;;;;;;;;;;;23.97;25.53;99929.47;6156201;23;20373;-70
2023/07/18 23:28:48;;;;;;;;;;;;;;;23.89;25.58;99925.47;6155951;23;19952;-70
2023/07/18 23:31:13;;;;;;;;;;;;;;;23.85;25.75;99940.06;6156203;23;19995;-70
2023/07/18 23:33:39;;;;;;;;;;;;;;;23.75;25.95;99938.22;6156290;23;20035;-70
2023/07/18 23:36:04;;;;;;;;;;;;;;;23.73;26.13;99934.97;6130157;23;19916;-70
2023/07/18 23:38:30;;;;;;;;;;;;;;;23.56;25.72;99946.44;6156334;23;19908;-70
2023/07/18 23:40:55;;;;;;;;;;;;;;;23.60;26.59;99952.94;6156234;23;19908;-70
2023/07/18 23:43:23;;;;;;;;;;;;;;;23.59;26.60;99940.38;6130001;23;19995;-70
2023/07/18 23:45:49;;;;;;;;;;;;;;;23.69;26.79;99944.91;6155988;23;20443;-70
2023/07/18 23:48:14;;;;;;;;;;;;;;;23.54;26.31;99943.16;6155002;23;19909;-70
2023/07/18 23:50:40;;;;;;;;;;;;;;;23.46;26.25;99938.31;6155605;23;19909;-70
2023/07/18 23:53:05;;;;;;;;;;;;;;;23.37;26.61;99935.44;6155803;23;19916;-70
2023/07/18 23:55:30;;;;;;;;;;;;;;;23.29;26.80;99941.53;6155779;23;19908;-69
2023/07/18 23:57:58;;;;;;;;;;;;;;;23.22;26.61;99941.09;6130081;23;19920;-70
